sensor_id;sensor_type;location;lat;lon;timestamp;P1;durP1;ratioP1;P2;durP2;ratioP2
17790;SDS011;9019;48.132;-1.210;2022-12-10T00:00:35;47.17;;;28.70;;
17790;SDS011;9019;48.132;-1.210;2022-12-10T00:03:02;44.73;;;27.27;;
17790;SDS011;9019;48.132;-1.210;2022-12-10T00:05:30;48.87;;;26.43;;
17790;SDS011;9019;48.132;-1.210;2022-12-10T00:07:59;44.03;;;26.27;;
17790;SDS011;9019;48.132;-1.210;2022-12-10T00:10:26;46.00;;;27.37;;
17790;SDS011;9019;48.132;-1.210;2022-12-10T00:12:55;46.33;;;27.03;;
17790;SDS011;9019;48.132;-1.210;2022-12-10T00:15:22;46.40;;;26.70;;
17790;SDS011;9019;48.132;-1.210;2022-12-10T00:17:50;54.43;;;28.97;;
17790;SDS011;9019;48.132;-1.210;2022-12-10T00:20:17;52.40;;;28.63;;
17790;SDS011;9019;48.132;-1.210;2022-12-10T00:22:44;51.23;;;27.33;;
17790;SDS011;9019;48.132;-1.210;2022-12-10T00:25:11;45.50;;;26.63;;
17790;SDS011;9019;48.132;-1.210;2022-12-10T00:27:39;48.57;;;26.97;;
17790;SDS011;9019;48.132;-1.210;2022-12-10T00:30:08;47.67;;;27.80;;
17790;SDS011;9019;48.132;-1.210;2022-12-10T00:32:35;49.73;;;28.23;;
17790;SDS011;9019;48.132;-1.210;2022-12-10T00:35:05;48.83;;;27.90;;
17790;SDS011;9019;48.132;-1.210;2022-12-10T00:37:32;50.80;;;28.80;;
17790;SDS011;9019;48.132;-1.210;2022-12-10T00:39:59;49.23;;;29.83;;
17790;SDS011;9019;48.132;-1.210;2022-12-10T00:42:27;48.23;;;28.03;;
17790;SDS011;9019;48.132;-1.210;2022-12-10T00:44:54;54.07;;;28.23;;
17790;SDS011;9019;48.132;-1.210;2022-12-10T00:47:23;47.63;;;30.20;;
17790;SDS011;9019;48.132;-1.210;2022-12-10T00:49:50;52.37;;;30.10;;
17790;SDS011;9019;48.132;-1.210;2022-12-10T00:52:17;58.57;;;32.93;;
17790;SDS011;9019;48.132;-1.210;2022-12-10T00:54:44;58.13;;;33.73;;
17790;SDS011;9019;48.132;-1.210;2022-12-10T00:57:12;60.07;;;34.80;;
17790;SDS011;9019;48.132;-1.210;2022-12-10T00:59:39;64.43;;;36.53;;
17790;SDS011;9019;48.132;-1.210;2022-12-10T01:02:06;63.87;;;36.43;;
17790;SDS011;9019;48.132;-1.210;2022-12-10T01:04:35;76.07;;;41.63;;
17790;SDS011;9019;48.132;-1.210;2022-12-10T01:07:02;77.20;;;41.27;;
17790;SDS011;9019;48.132;-1.210;2022-12-10T01:09:29;65.87;;;36.43;;
17790;SDS011;9019;48.132;-1.210;2022-12-10T01:11:57;65.53;;;36.20;;
17790;SDS011;9019;48.132;-1.210;2022-12-10T01:14:26;52.57;;;31.20;;
17790;SDS011;9019;48.132;-1.210;2022-12-10T01:16:54;50.27;;;29.33;;
17790;SDS011;9019;48.132;-1.210;2022-12-10T01:19:22;53.20;;;31.03;;
17790;SDS011;9019;48.132;-1.210;2022-12-10T01:21:51;48.10;;;29.27;;
17790;SDS011;9019;48.132;-1.210;2022-12-10T01:24:18;62.70;;;33.70;;
17790;SDS011;9019;48.132;-1.210;2022-12-10T01:26:45;56.67;;;33.17;;
17790;SDS011;9019;48.132;-1.210;2022-12-10T01:29:13;60.70;;;33.83;;
17790;SDS011;9019;48.132;-1.210;2022-12-10T01:31:40;55.97;;;31.77;;
17790;SDS011;9019;48.132;-1.210;2022-12-10T01:34:10;55.40;;;32.30;;
17790;SDS011;9019;48.132;-1.210;2022-12-10T01:36:39;58.63;;;32.83;;
17790;SDS011;9019;48.132;-1.210;2022-12-10T01:39:09;58.63;;;33.10;;
17790;SDS011;9019;48.132;-1.210;2022-12-10T01:41:38;61.13;;;34.77;;
17790;SDS011;9019;48.132;-1.210;2022-12-10T01:46:53;53.87;;;31.80;;
17790;SDS011;9019;48.132;-1.210;2022-12-10T01:49:22;53.30;;;30.03;;
17790;SDS011;9019;48.132;-1.210;2022-12-10T01:51:50;52.30;;;29.77;;
17790;SDS011;9019;48.132;-1.210;2022-12-10T01:54:20;51.63;;;28.60;;
17790;SDS011;9019;48.132;-1.210;2022-12-10T01:56:50;50.13;;;28.83;;
17790;SDS011;9019;48.132;-1.210;2022-12-10T01:59:18;49.10;;;28.60;;
17790;SDS011;9019;48.132;-1.210;2022-12-10T02:01:46;48.87;;;27.20;;
17790;SDS011;9019;48.132;-1.210;2022-12-10T02:04:18;48.17;;;27.33;;
17790;SDS011;9019;48.132;-1.210;2022-12-10T02:06:53;50.97;;;28.83;;
17790;SDS011;9019;48.132;-1.210;2022-12-10T02:09:24;42.17;;;25.10;;
17790;SDS011;9019;48.132;-1.210;2022-12-10T02:11:56;38.47;;;21.50;;
17790;SDS011;9019;48.132;-1.210;2022-12-10T02:14:28;35.57;;;20.57;;
17790;SDS011;9019;48.132;-1.210;2022-12-10T02:16:57;33.87;;;20.40;;
17790;SDS011;9019;48.132;-1.210;2022-12-10T02:19:29;33.53;;;20.27;;
17790;SDS011;9019;48.132;-1.210;2022-12-10T02:22:02;35.90;;;20.90;;
17790;SDS011;9019;48.132;-1.210;2022-12-10T02:24:32;34.03;;;21.13;;
17790;SDS011;9019;48.132;-1.210;2022-12-10T02:27:03;42.30;;;21.70;;
17790;SDS011;9019;48.132;-1.210;2022-12-10T02:29:33;36.17;;;21.13;;
17790;SDS011;9019;48.132;-1.210;2022-12-10T02:32:02;35.67;;;21.37;;
17790;SDS011;9019;48.132;-1.210;2022-12-10T02:34:32;35.43;;;21.27;;
17790;SDS011;9019;48.132;-1.210;2022-12-10T02:37:00;33.23;;;20.70;;
17790;SDS011;9019;48.132;-1.210;2022-12-10T02:39:30;38.10;;;21.77;;
17790;SDS011;9019;48.132;-1.210;2022-12-10T02:41:59;42.43;;;23.80;;
17790;SDS011;9019;48.132;-1.210;2022-12-10T02:44:27;36.53;;;23.30;;
17790;SDS011;9019;48.132;-1.210;2022-12-10T02:46:56;41.17;;;24.40;;
17790;SDS011;9019;48.132;-1.210;2022-12-10T02:49:24;38.23;;;23.80;;
17790;SDS011;9019;48.132;-1.210;2022-12-10T02:51:52;40.70;;;25.03;;
17790;SDS011;9019;48.132;-1.210;2022-12-10T02:54:39;41.63;;;24.20;;
17790;SDS011;9019;48.132;-1.210;2022-12-10T02:57:15;40.63;;;23.33;;
17790;SDS011;9019;48.132;-1.210;2022-12-10T02:59:52;37.47;;;21.70;;
17790;SDS011;9019;48.132;-1.210;2022-12-10T03:02:24;38.33;;;23.10;;
17790;SDS011;9019;48.132;-1.210;2022-12-10T03:04:57;39.77;;;22.83;;
17790;SDS011;9019;48.132;-1.210;2022-12-10T03:07:27;39.20;;;22.57;;
17790;SDS011;9019;48.132;-1.210;2022-12-10T03:09:59;37.07;;;22.20;;
17790;SDS011;9019;48.132;-1.210;2022-12-10T03:12:28;38.67;;;21.43;;
17790;SDS011;9019;48.132;-1.210;2022-12-10T03:14:57;39.80;;;22.87;;
17790;SDS011;9019;48.132;-1.210;2022-12-10T03:17:26;37.63;;;22.73;;
17790;SDS011;9019;48.132;-1.210;2022-12-10T03:19:54;38.30;;;22.33;;
17790;SDS011;9019;48.132;-1.210;2022-12-10T03:22:22;38.93;;;22.97;;
17790;SDS011;9019;48.132;-1.210;2022-12-10T03:24:49;43.03;;;24.87;;
17790;SDS011;9019;48.132;-1.210;2022-12-10T03:27:18;39.93;;;24.07;;
17790;SDS011;9019;48.132;-1.210;2022-12-10T03:29:48;40.77;;;23.47;;
17790;SDS011;9019;48.132;-1.210;2022-12-10T03:32:16;40.20;;;24.00;;
17790;SDS011;9019;48.132;-1.210;2022-12-10T03:34:46;40.60;;;23.47;;
17790;SDS011;9019;48.132;-1.210;2022-12-10T03:37:14;40.07;;;23.67;;
17790;SDS011;9019;48.132;-1.210;2022-12-10T03:39:41;39.90;;;22.80;;
17790;SDS011;9019;48.132;-1.210;2022-12-10T03:42:09;38.17;;;23.67;;
17790;SDS011;9019;48.132;-1.210;2022-12-10T03:44:37;41.43;;;24.00;;
17790;SDS011;9019;48.132;-1.210;2022-12-10T03:47:06;36.57;;;22.97;;
17790;SDS011;9019;48.132;-1.210;2022-12-10T03:49:34;37.33;;;22.73;;
17790;SDS011;9019;48.132;-1.210;2022-12-10T03:52:03;35.13;;;21.53;;
17790;SDS011;9019;48.132;-1.210;2022-12-10T03:54:30;36.70;;;21.83;;
17790;SDS011;9019;48.132;-1.210;2022-12-10T03:56:57;40.37;;;21.30;;
17790;SDS011;9019;48.132;-1.210;2022-12-10T03:59:25;36.73;;;22.10;;
17790;SDS011;9019;48.132;-1.210;2022-12-10T04:01:52;36.03;;;21.77;;
17790;SDS011;9019;48.132;-1.210;2022-12-10T04:04:19;38.63;;;22.73;;
17790;SDS011;9019;48.132;-1.210;2022-12-10T04:06:47;40.50;;;23.23;;
17790;SDS011;9019;48.132;-1.210;2022-12-10T04:09:16;37.57;;;22.33;;
17790;SDS011;9019;48.132;-1.210;2022-12-10T04:11:43;41.50;;;24.17;;
17790;SDS011;9019;48.132;-1.210;2022-12-10T04:14:10;46.17;;;25.23;;
17790;SDS011;9019;48.132;-1.210;2022-12-10T04:16:56;42.37;;;24.80;;
17790;SDS011;9019;48.132;-1.210;2022-12-10T04:19:23;46.83;;;26.07;;
17790;SDS011;9019;48.132;-1.210;2022-12-10T04:21:50;46.03;;;26.70;;
17790;SDS011;9019;48.132;-1.210;2022-12-10T04:24:37;43.23;;;24.73;;
17790;SDS011;9019;48.132;-1.210;2022-12-10T04:27:22;37.10;;;21.97;;
17790;SDS011;9019;48.132;-1.210;2022-12-10T04:29:53;37.73;;;22.20;;
17790;SDS011;9019;48.132;-1.210;2022-12-10T04:32:21;36.90;;;22.07;;
17790;SDS011;9019;48.132;-1.210;2022-12-10T04:34:49;38.40;;;22.77;;
17790;SDS011;9019;48.132;-1.210;2022-12-10T04:37:17;40.70;;;22.67;;
17790;SDS011;9019;48.132;-1.210;2022-12-10T04:39:46;36.73;;;22.27;;
17790;SDS011;9019;48.132;-1.210;2022-12-10T04:42:13;39.30;;;23.37;;
17790;SDS011;9019;48.132;-1.210;2022-12-10T04:44:41;36.97;;;22.37;;
17790;SDS011;9019;48.132;-1.210;2022-12-10T04:47:08;35.07;;;22.03;;
17790;SDS011;9019;48.132;-1.210;2022-12-10T04:49:36;40.03;;;23.80;;
17790;SDS011;9019;48.132;-1.210;2022-12-10T04:52:05;39.90;;;24.20;;
17790;SDS011;9019;48.132;-1.210;2022-12-10T04:54:32;43.07;;;24.40;;
17790;SDS011;9019;48.132;-1.210;2022-12-10T04:57:01;42.53;;;24.00;;
17790;SDS011;9019;48.132;-1.210;2022-12-10T04:59:28;40.80;;;24.60;;
17790;SDS011;9019;48.132;-1.210;2022-12-10T05:01:55;41.37;;;23.77;;
17790;SDS011;9019;48.132;-1.210;2022-12-10T05:04:23;42.57;;;23.40;;
17790;SDS011;9019;48.132;-1.210;2022-12-10T05:06:50;31.87;;;19.93;;
17790;SDS011;9019;48.132;-1.210;2022-12-10T05:09:18;32.43;;;19.90;;
17790;SDS011;9019;48.132;-1.210;2022-12-10T05:11:46;34.43;;;19.73;;
17790;SDS011;9019;48.132;-1.210;2022-12-10T05:14:15;31.00;;;18.87;;
17790;SDS011;9019;48.132;-1.210;2022-12-10T05:16:42;37.47;;;20.80;;
17790;SDS011;9019;48.132;-1.210;2022-12-10T05:19:09;37.77;;;20.57;;
17790;SDS011;9019;48.132;-1.210;2022-12-10T05:21:37;37.37;;;21.47;;
17790;SDS011;9019;48.132;-1.210;2022-12-10T05:24:21;41.00;;;22.60;;
17790;SDS011;9019;48.132;-1.210;2022-12-10T05:26:49;34.77;;;20.67;;
17790;SDS011;9019;48.132;-1.210;2022-12-10T05:29:18;36.93;;;20.57;;
17790;SDS011;9019;48.132;-1.210;2022-12-10T05:31:45;34.07;;;20.37;;
17790;SDS011;9019;48.132;-1.210;2022-12-10T05:34:13;33.23;;;19.43;;
17790;SDS011;9019;48.132;-1.210;2022-12-10T05:36:40;31.10;;;19.03;;
17790;SDS011;9019;48.132;-1.210;2022-12-10T05:39:07;35.80;;;20.67;;
17790;SDS011;9019;48.132;-1.210;2022-12-10T05:41:35;36.13;;;21.10;;
17790;SDS011;9019;48.132;-1.210;2022-12-10T05:44:03;35.73;;;20.97;;
17790;SDS011;9019;48.132;-1.210;2022-12-10T05:46:32;36.73;;;20.37;;
17790;SDS011;9019;48.132;-1.210;2022-12-10T05:49:00;35.30;;;21.20;;
17790;SDS011;9019;48.132;-1.210;2022-12-10T05:51:29;37.33;;;21.60;;
17790;SDS011;9019;48.132;-1.210;2022-12-10T05:53:57;119.27;;;61.83;;
17790;SDS011;9019;48.132;-1.210;2022-12-10T05:56:26;102.27;;;51.20;;
17790;SDS011;9019;48.132;-1.210;2022-12-10T05:58:57;57.03;;;29.73;;
17790;SDS011;9019;48.132;-1.210;2022-12-10T06:01:26;41.10;;;22.53;;
17790;SDS011;9019;48.132;-1.210;2022-12-10T06:03:56;56.20;;;31.70;;
17790;SDS011;9019;48.132;-1.210;2022-12-10T06:06:24;53.80;;;27.57;;
17790;SDS011;9019;48.132;-1.210;2022-12-10T06:08:55;54.13;;;28.67;;
17790;SDS011;9019;48.132;-1.210;2022-12-10T06:11:25;43.53;;;24.97;;
17790;SDS011;9019;48.132;-1.210;2022-12-10T06:13:53;43.27;;;25.50;;
17790;SDS011;9019;48.132;-1.210;2022-12-10T06:16:24;44.33;;;24.63;;
17790;SDS011;9019;48.132;-1.210;2022-12-10T06:18:54;40.43;;;23.80;;
17790;SDS011;9019;48.132;-1.210;2022-12-10T06:21:22;45.03;;;24.13;;
17790;SDS011;9019;48.132;-1.210;2022-12-10T06:23:50;42.53;;;24.00;;
17790;SDS011;9019;48.132;-1.210;2022-12-10T06:26:18;48.63;;;25.93;;
17790;SDS011;9019;48.132;-1.210;2022-12-10T06:28:46;79.13;;;38.50;;
17790;SDS011;9019;48.132;-1.210;2022-12-10T06:31:14;75.90;;;38.37;;
17790;SDS011;9019;48.132;-1.210;2022-12-10T06:33:41;81.23;;;39.40;;
17790;SDS011;9019;48.132;-1.210;2022-12-10T06:36:10;74.53;;;37.53;;
17790;SDS011;9019;48.132;-1.210;2022-12-10T06:38:38;61.43;;;31.17;;
17790;SDS011;9019;48.132;-1.210;2022-12-10T06:41:06;54.07;;;29.53;;
17790;SDS011;9019;48.132;-1.210;2022-12-10T06:43:34;50.40;;;28.03;;
17790;SDS011;9019;48.132;-1.210;2022-12-10T06:46:05;50.60;;;26.63;;
17790;SDS011;9019;48.132;-1.210;2022-12-10T06:48:32;59.27;;;29.57;;
17790;SDS011;9019;48.132;-1.210;2022-12-10T06:51:00;64.27;;;32.17;;
17790;SDS011;9019;48.132;-1.210;2022-12-10T06:53:29;55.07;;;28.07;;
17790;SDS011;9019;48.132;-1.210;2022-12-10T06:55:57;47.03;;;25.83;;
17790;SDS011;9019;48.132;-1.210;2022-12-10T06:58:26;45.20;;;25.57;;
17790;SDS011;9019;48.132;-1.210;2022-12-10T07:01:01;42.60;;;23.43;;
17790;SDS011;9019;48.132;-1.210;2022-12-10T07:03:28;40.97;;;24.07;;
17790;SDS011;9019;48.132;-1.210;2022-12-10T07:05:56;41.47;;;23.87;;
17790;SDS011;9019;48.132;-1.210;2022-12-10T07:08:23;40.97;;;23.30;;
17790;SDS011;9019;48.132;-1.210;2022-12-10T07:10:52;43.20;;;24.43;;
17790;SDS011;9019;48.132;-1.210;2022-12-10T07:13:19;45.60;;;24.40;;
17790;SDS011;9019;48.132;-1.210;2022-12-10T07:15:47;48.17;;;26.40;;
17790;SDS011;9019;48.132;-1.210;2022-12-10T07:18:14;54.10;;;27.97;;
17790;SDS011;9019;48.132;-1.210;2022-12-10T07:20:41;62.30;;;31.73;;
17790;SDS011;9019;48.132;-1.210;2022-12-10T07:23:09;61.57;;;32.60;;
17790;SDS011;9019;48.132;-1.210;2022-12-10T07:25:36;54.10;;;29.23;;
17790;SDS011;9019;48.132;-1.210;2022-12-10T07:28:04;51.57;;;27.90;;
17790;SDS011;9019;48.132;-1.210;2022-12-10T07:30:32;68.50;;;33.43;;
17790;SDS011;9019;48.132;-1.210;2022-12-10T07:33:02;48.20;;;25.90;;
17790;SDS011;9019;48.132;-1.210;2022-12-10T07:35:29;40.87;;;22.07;;
17790;SDS011;9019;48.132;-1.210;2022-12-10T07:37:57;37.53;;;22.50;;
17790;SDS011;9019;48.132;-1.210;2022-12-10T07:40:24;38.10;;;21.53;;
17790;SDS011;9019;48.132;-1.210;2022-12-10T07:42:51;39.03;;;21.40;;
17790;SDS011;9019;48.132;-1.210;2022-12-10T07:45:20;41.20;;;22.67;;
17790;SDS011;9019;48.132;-1.210;2022-12-10T07:47:47;37.90;;;22.33;;
17790;SDS011;9019;48.132;-1.210;2022-12-10T07:50:15;44.40;;;22.67;;
17790;SDS011;9019;48.132;-1.210;2022-12-10T07:52:42;35.30;;;22.13;;
17790;SDS011;9019;48.132;-1.210;2022-12-10T07:55:10;37.80;;;22.40;;
17790;SDS011;9019;48.132;-1.210;2022-12-10T07:57:37;36.67;;;22.57;;
17790;SDS011;9019;48.132;-1.210;2022-12-10T08:00:05;42.03;;;23.70;;
17790;SDS011;9019;48.132;-1.210;2022-12-10T08:02:34;41.40;;;23.70;;
17790;SDS011;9019;48.132;-1.210;2022-12-10T08:05:02;40.23;;;23.20;;
17790;SDS011;9019;48.132;-1.210;2022-12-10T08:07:29;44.97;;;25.07;;
17790;SDS011;9019;48.132;-1.210;2022-12-10T08:09:56;44.03;;;25.70;;
17790;SDS011;9019;48.132;-1.210;2022-12-10T08:12:24;44.03;;;26.07;;
17790;SDS011;9019;48.132;-1.210;2022-12-10T08:14:51;41.37;;;25.83;;
17790;SDS011;9019;48.132;-1.210;2022-12-10T08:17:18;40.37;;;25.70;;
17790;SDS011;9019;48.132;-1.210;2022-12-10T08:19:47;38.93;;;24.30;;
17790;SDS011;9019;48.132;-1.210;2022-12-10T08:22:15;36.80;;;22.73;;
17790;SDS011;9019;48.132;-1.210;2022-12-10T08:24:43;33.10;;;21.97;;
17790;SDS011;9019;48.132;-1.210;2022-12-10T08:27:10;33.90;;;21.67;;
17790;SDS011;9019;48.132;-1.210;2022-12-10T08:29:38;31.27;;;21.37;;
17790;SDS011;9019;48.132;-1.210;2022-12-10T08:32:05;32.67;;;21.53;;
17790;SDS011;9019;48.132;-1.210;2022-12-10T08:34:32;36.27;;;23.03;;
17790;SDS011;9019;48.132;-1.210;2022-12-10T08:37:01;38.57;;;24.50;;
17790;SDS011;9019;48.132;-1.210;2022-12-10T08:39:28;33.40;;;24.00;;
17790;SDS011;9019;48.132;-1.210;2022-12-10T08:41:55;41.80;;;28.33;;
17790;SDS011;9019;48.132;-1.210;2022-12-10T08:44:23;46.80;;;31.80;;
17790;SDS011;9019;48.132;-1.210;2022-12-10T08:46:50;51.93;;;35.30;;
17790;SDS011;9019;48.132;-1.210;2022-12-10T08:49:17;57.93;;;37.80;;
17790;SDS011;9019;48.132;-1.210;2022-12-10T08:51:44;46.93;;;33.37;;
17790;SDS011;9019;48.132;-1.210;2022-12-10T08:54:13;70.73;;;45.77;;
17790;SDS011;9019;48.132;-1.210;2022-12-10T08:56:41;49.57;;;34.60;;
17790;SDS011;9019;48.132;-1.210;2022-12-10T08:59:08;39.13;;;29.43;;
17790;SDS011;9019;48.132;-1.210;2022-12-10T09:01:36;47.03;;;34.23;;
17790;SDS011;9019;48.132;-1.210;2022-12-10T09:04:03;38.27;;;28.63;;
17790;SDS011;9019;48.132;-1.210;2022-12-10T09:06:30;32.43;;;25.10;;
17790;SDS011;9019;48.132;-1.210;2022-12-10T09:08:57;35.97;;;24.00;;
17790;SDS011;9019;48.132;-1.210;2022-12-10T09:11:27;31.30;;;24.17;;
17790;SDS011;9019;48.132;-1.210;2022-12-10T09:13:55;30.57;;;22.83;;
17790;SDS011;9019;48.132;-1.210;2022-12-10T09:16:27;34.70;;;26.53;;
17790;SDS011;9019;48.132;-1.210;2022-12-10T09:18:54;36.13;;;25.97;;
17790;SDS011;9019;48.132;-1.210;2022-12-10T09:21:21;33.87;;;23.87;;
17790;SDS011;9019;48.132;-1.210;2022-12-10T09:23:49;29.87;;;24.17;;
17790;SDS011;9019;48.132;-1.210;2022-12-10T09:26:17;33.57;;;24.43;;
17790;SDS011;9019;48.132;-1.210;2022-12-10T09:28:46;33.20;;;24.07;;
17790;SDS011;9019;48.132;-1.210;2022-12-10T09:31:14;31.70;;;24.10;;
17790;SDS011;9019;48.132;-1.210;2022-12-10T09:33:42;29.90;;;22.87;;
17790;SDS011;9019;48.132;-1.210;2022-12-10T09:36:10;33.03;;;24.13;;
17790;SDS011;9019;48.132;-1.210;2022-12-10T09:38:38;31.87;;;24.43;;
17790;SDS011;9019;48.132;-1.210;2022-12-10T09:41:10;34.27;;;26.33;;
17790;SDS011;9019;48.132;-1.210;2022-12-10T09:43:46;35.53;;;26.90;;
17790;SDS011;9019;48.132;-1.210;2022-12-10T09:46:18;38.67;;;30.10;;
17790;SDS011;9019;48.132;-1.210;2022-12-10T09:48:53;47.00;;;35.03;;
17790;SDS011;9019;48.132;-1.210;2022-12-10T09:51:23;38.17;;;28.60;;
17790;SDS011;9019;48.132;-1.210;2022-12-10T09:53:51;36.37;;;28.20;;
17790;SDS011;9019;48.132;-1.210;2022-12-10T09:56:24;34.93;;;26.63;;
17790;SDS011;9019;48.132;-1.210;2022-12-10T09:58:54;38.73;;;28.00;;
17790;SDS011;9019;48.132;-1.210;2022-12-10T10:01:23;41.60;;;29.17;;
17790;SDS011;9019;48.132;-1.210;2022-12-10T10:03:51;38.73;;;29.40;;
17790;SDS011;9019;48.132;-1.210;2022-12-10T10:06:19;41.40;;;29.93;;
17790;SDS011;9019;48.132;-1.210;2022-12-10T10:08:48;38.13;;;29.07;;
17790;SDS011;9019;48.132;-1.210;2022-12-10T10:11:19;38.27;;;29.73;;
17790;SDS011;9019;48.132;-1.210;2022-12-10T10:13:47;44.23;;;32.03;;
17790;SDS011;9019;48.132;-1.210;2022-12-10T10:16:22;41.87;;;31.27;;
17790;SDS011;9019;48.132;-1.210;2022-12-10T10:18:51;43.03;;;32.90;;
17790;SDS011;9019;48.132;-1.210;2022-12-10T10:21:21;42.23;;;32.83;;
17790;SDS011;9019;48.132;-1.210;2022-12-10T10:23:48;46.77;;;34.67;;
17790;SDS011;9019;48.132;-1.210;2022-12-10T10:26:16;45.30;;;35.00;;
17790;SDS011;9019;48.132;-1.210;2022-12-10T10:28:43;40.70;;;32.97;;
17790;SDS011;9019;48.132;-1.210;2022-12-10T10:31:16;63.47;;;45.33;;
17790;SDS011;9019;48.132;-1.210;2022-12-10T10:33:49;43.27;;;31.93;;
17790;SDS011;9019;48.132;-1.210;2022-12-10T10:36:22;45.27;;;34.00;;
17790;SDS011;9019;48.132;-1.210;2022-12-10T10:38:49;41.40;;;32.00;;
17790;SDS011;9019;48.132;-1.210;2022-12-10T10:41:16;41.33;;;32.03;;
17790;SDS011;9019;48.132;-1.210;2022-12-10T10:43:44;41.60;;;32.07;;
17790;SDS011;9019;48.132;-1.210;2022-12-10T10:46:13;42.33;;;31.70;;
17790;SDS011;9019;48.132;-1.210;2022-12-10T10:48:41;39.13;;;29.97;;
17790;SDS011;9019;48.132;-1.210;2022-12-10T10:51:14;36.77;;;29.37;;
17790;SDS011;9019;48.132;-1.210;2022-12-10T10:53:44;34.80;;;27.40;;
17790;SDS011;9019;48.132;-1.210;2022-12-10T10:56:13;29.17;;;22.37;;
17790;SDS011;9019;48.132;-1.210;2022-12-10T10:58:47;29.83;;;21.90;;
17790;SDS011;9019;48.132;-1.210;2022-12-10T11:01:16;25.90;;;19.93;;
17790;SDS011;9019;48.132;-1.210;2022-12-10T11:03:45;28.17;;;21.17;;
17790;SDS011;9019;48.132;-1.210;2022-12-10T11:06:15;20.43;;;16.87;;
17790;SDS011;9019;48.132;-1.210;2022-12-10T11:08:44;13.33;;;10.83;;
17790;SDS011;9019;48.132;-1.210;2022-12-10T11:11:13;13.47;;;10.93;;
17790;SDS011;9019;48.132;-1.210;2022-12-10T11:13:44;14.63;;;12.23;;
17790;SDS011;9019;48.132;-1.210;2022-12-10T11:16:15;16.10;;;12.97;;
17790;SDS011;9019;48.132;-1.210;2022-12-10T11:18:51;14.27;;;11.70;;
17790;SDS011;9019;48.132;-1.210;2022-12-10T11:21:20;14.47;;;10.70;;
17790;SDS011;9019;48.132;-1.210;2022-12-10T11:23:48;12.63;;;10.23;;
17790;SDS011;9019;48.132;-1.210;2022-12-10T11:26:24;12.17;;;10.13;;
17790;SDS011;9019;48.132;-1.210;2022-12-10T11:28:58;14.43;;;11.03;;
17790;SDS011;9019;48.132;-1.210;2022-12-10T11:31:32;14.03;;;11.23;;
17790;SDS011;9019;48.132;-1.210;2022-12-10T11:34:02;13.33;;;11.70;;
17790;SDS011;9019;48.132;-1.210;2022-12-10T11:36:35;13.87;;;11.03;;
17790;SDS011;9019;48.132;-1.210;2022-12-10T11:39:10;11.70;;;9.40;;
17790;SDS011;9019;48.132;-1.210;2022-12-10T11:41:41;11.40;;;9.67;;
17790;SDS011;9019;48.132;-1.210;2022-12-10T11:44:17;10.13;;;8.90;;
17790;SDS011;9019;48.132;-1.210;2022-12-10T11:46:53;11.60;;;9.17;;
17790;SDS011;9019;48.132;-1.210;2022-12-10T11:49:25;13.57;;;10.30;;
17790;SDS011;9019;48.132;-1.210;2022-12-10T11:51:59;12.13;;;9.87;;
17790;SDS011;9019;48.132;-1.210;2022-12-10T11:54:33;11.73;;;10.47;;
17790;SDS011;9019;48.132;-1.210;2022-12-10T11:57:05;14.87;;;11.70;;
17790;SDS011;9019;48.132;-1.210;2022-12-10T11:59:46;14.27;;;12.20;;
17790;SDS011;9019;48.132;-1.210;2022-12-10T12:02:23;13.07;;;10.90;;
17790;SDS011;9019;48.132;-1.210;2022-12-10T12:05:02;14.60;;;11.87;;
17790;SDS011;9019;48.132;-1.210;2022-12-10T12:07:36;14.80;;;11.40;;
17790;SDS011;9019;48.132;-1.210;2022-12-10T12:10:15;16.50;;;13.13;;
17790;SDS011;9019;48.132;-1.210;2022-12-10T12:12:50;14.13;;;12.07;;
17790;SDS011;9019;48.132;-1.210;2022-12-10T12:15:24;17.43;;;13.67;;
17790;SDS011;9019;48.132;-1.210;2022-12-10T12:17:55;17.23;;;13.93;;
17790;SDS011;9019;48.132;-1.210;2022-12-10T12:20:23;17.30;;;13.67;;
17790;SDS011;9019;48.132;-1.210;2022-12-10T12:22:53;19.93;;;15.80;;
17790;SDS011;9019;48.132;-1.210;2022-12-10T12:25:23;23.27;;;16.23;;
17790;SDS011;9019;48.132;-1.210;2022-12-10T12:27:53;22.73;;;16.70;;
17790;SDS011;9019;48.132;-1.210;2022-12-10T12:30:22;21.33;;;15.63;;
17790;SDS011;9019;48.132;-1.210;2022-12-10T12:32:51;15.20;;;12.33;;
17790;SDS011;9019;48.132;-1.210;2022-12-10T12:35:21;17.33;;;13.17;;
17790;SDS011;9019;48.132;-1.210;2022-12-10T12:37:53;18.23;;;13.83;;
17790;SDS011;9019;48.132;-1.210;2022-12-10T12:40:25;18.03;;;12.23;;
17790;SDS011;9019;48.132;-1.210;2022-12-10T12:42:55;14.27;;;12.20;;
17790;SDS011;9019;48.132;-1.210;2022-12-10T12:45:28;14.60;;;12.43;;
17790;SDS011;9019;48.132;-1.210;2022-12-10T12:47:56;15.57;;;12.87;;
17790;SDS011;9019;48.132;-1.210;2022-12-10T12:50:26;13.50;;;11.93;;
17790;SDS011;9019;48.132;-1.210;2022-12-10T12:52:56;15.27;;;13.37;;
17790;SDS011;9019;48.132;-1.210;2022-12-10T12:55:28;15.03;;;11.87;;
17790;SDS011;9019;48.132;-1.210;2022-12-10T12:58:00;16.93;;;12.50;;
17790;SDS011;9019;48.132;-1.210;2022-12-10T13:00:28;16.57;;;13.20;;
17790;SDS011;9019;48.132;-1.210;2022-12-10T13:03:05;13.63;;;11.63;;
17790;SDS011;9019;48.132;-1.210;2022-12-10T13:05:35;15.23;;;11.70;;
17790;SDS011;9019;48.132;-1.210;2022-12-10T13:11:00;13.20;;;10.87;;
17790;SDS011;9019;48.132;-1.210;2022-12-10T13:13:29;13.53;;;10.70;;
17790;SDS011;9019;48.132;-1.210;2022-12-10T13:15:56;13.10;;;10.97;;
17790;SDS011;9019;48.132;-1.210;2022-12-10T13:18:43;15.80;;;11.63;;
17790;SDS011;9019;48.132;-1.210;2022-12-10T13:24:06;11.77;;;10.57;;
17790;SDS011;9019;48.132;-1.210;2022-12-10T13:26:35;13.53;;;10.37;;
17790;SDS011;9019;48.132;-1.210;2022-12-10T13:29:19;13.07;;;10.37;;
17790;SDS011;9019;48.132;-1.210;2022-12-10T13:31:54;11.70;;;10.10;;
17790;SDS011;9019;48.132;-1.210;2022-12-10T13:34:25;12.70;;;10.60;;
17790;SDS011;9019;48.132;-1.210;2022-12-10T13:37:04;11.17;;;9.10;;
17790;SDS011;9019;48.132;-1.210;2022-12-10T13:39:33;11.53;;;8.97;;
17790;SDS011;9019;48.132;-1.210;2022-12-10T13:45:02;11.03;;;8.33;;
17790;SDS011;9019;48.132;-1.210;2022-12-10T13:47:32;11.60;;;9.40;;
17790;SDS011;9019;48.132;-1.210;2022-12-10T13:50:00;11.67;;;8.97;;
17790;SDS011;9019;48.132;-1.210;2022-12-10T13:52:29;9.77;;;7.70;;
17790;SDS011;9019;48.132;-1.210;2022-12-10T13:55:04;8.57;;;7.60;;
17790;SDS011;9019;48.132;-1.210;2022-12-10T13:57:37;11.60;;;7.73;;
17790;SDS011;9019;48.132;-1.210;2022-12-10T14:00:13;10.33;;;7.33;;
17790;SDS011;9019;48.132;-1.210;2022-12-10T14:08:16;9.40;;;7.47;;
17790;SDS011;9019;48.132;-1.210;2022-12-10T14:10:45;9.53;;;6.93;;
17790;SDS011;9019;48.132;-1.210;2022-12-10T14:13:13;10.87;;;8.10;;
17790;SDS011;9019;48.132;-1.210;2022-12-10T14:15:43;9.10;;;7.17;;
17790;SDS011;9019;48.132;-1.210;2022-12-10T14:18:16;9.47;;;7.90;;
17790;SDS011;9019;48.132;-1.210;2022-12-10T14:20:44;11.37;;;8.20;;
17790;SDS011;9019;48.132;-1.210;2022-12-10T14:23:20;11.07;;;7.90;;
17790;SDS011;9019;48.132;-1.210;2022-12-10T14:26:03;12.87;;;8.70;;
17790;SDS011;9019;48.132;-1.210;2022-12-10T14:28:31;12.53;;;8.83;;
17790;SDS011;9019;48.132;-1.210;2022-12-10T14:31:00;10.37;;;8.33;;
17790;SDS011;9019;48.132;-1.210;2022-12-10T14:33:28;11.67;;;8.53;;
17790;SDS011;9019;48.132;-1.210;2022-12-10T14:35:56;14.57;;;8.90;;
17790;SDS011;9019;48.132;-1.210;2022-12-10T14:38:25;13.00;;;9.50;;
17790;SDS011;9019;48.132;-1.210;2022-12-10T14:40:54;13.50;;;9.33;;
17790;SDS011;9019;48.132;-1.210;2022-12-10T14:43:22;11.00;;;8.47;;
17790;SDS011;9019;48.132;-1.210;2022-12-10T14:45:52;11.57;;;8.60;;
17790;SDS011;9019;48.132;-1.210;2022-12-10T14:48:22;9.37;;;7.57;;
17790;SDS011;9019;48.132;-1.210;2022-12-10T14:50:50;11.77;;;8.27;;
17790;SDS011;9019;48.132;-1.210;2022-12-10T14:53:18;14.80;;;8.50;;